• Join FlightAware (Why Join?)
  • Login
  • US Flag 
05:22PM EDT


 

Airport Tracker/Info


-or-


 

Live Flight TrackerFlight Track Log ✈ CSH9128 ✈ 17-Aug-2014 ✈ ZBHH / HET - ZSSS / SHA

Flight Track Log - Related Links

Times and Time Zones

All times are in EDT time to prevent confusion due to time zone crossing. See the CSH9128 flight status page for this flight to view local times or setup timezone preferences in your user account.

Time Position Orientation Groundspeed Altitude Reporting Facility
EDT Latitude Longitude Course Direction KTS MPH feet Rate Location/Type
07:54AM 39.8731 112.9440 139° Southeast  Level Estimated
07:55AM 39.8028 113.0228 139° Southeast  Level Estimated
07:56AM 39.7330 113.1008 139° Southeast  Level Estimated
07:57AM 39.6632 113.1786 139° Southeast  Level Estimated
07:58AM 39.5932 113.2563 139° Southeast  Level Estimated
07:59AM 39.5233 113.3339 139° Southeast  Level Estimated
08:00AM 39.4532 113.4113 140° Southeast  Level Estimated
08:01AM 39.3832 113.4885 140° Southeast  Level Estimated
08:02AM 39.3130 113.5656 140° Southeast  Level Estimated
08:03AM 39.2429 113.6425 140° Southeast  Level Estimated
08:04AM 39.1726 113.7193 140° Southeast  Level Estimated
08:05AM 39.1024 113.7959 140° Southeast  Level Estimated
08:06AM 39.0320 113.8724 140° Southeast  Level Estimated
08:07AM 38.9617 113.9487 140° Southeast  Level Estimated
08:08AM 38.8912 114.0248 140° Southeast  Level Estimated
08:09AM 38.8208 114.1008 140° Southeast  Level Estimated
08:10AM 38.7502 114.1767 140° Southeast  Level Estimated
08:11AM 38.6797 114.2524 140° Southeast  Level Estimated
08:12AM 38.6091 114.3280 140° Southeast  Level Estimated
08:13AM 38.5384 114.4034 140° Southeast  Level Estimated
08:14AM 38.4677 114.4786 140° Southeast  Level Estimated
08:15AM 38.3969 114.5537 140° Southeast  Level Estimated
08:16AM 38.3261 114.6287 140° Southeast  Level Estimated
08:17AM 38.2552 114.7035 140° Southeast  Level Estimated
08:18AM 38.1843 114.7782 140° Southeast  Level Estimated
08:19AM 38.1133 114.8527 140° Southeast  Level Estimated
08:20AM 38.0424 114.9271 140° Southeast  Level Estimated
08:21AM 37.9713 115.0014 141° Southeast  Level Estimated
08:22AM 37.9002 115.0755 141° Southeast  Level Estimated
08:23AM 37.8291 115.1494 141° Southeast  Level Estimated
08:24AM 37.7579 115.2232 141° Southeast  Level Estimated
08:25AM 37.6866 115.2969 141° Southeast  Level Estimated
08:26AM 37.6154 115.3704 141° Southeast  Level Estimated
08:27AM 37.5440 115.4438 141° Southeast  Level Estimated
08:28AM 37.4727 115.5171 141° Southeast  Level Estimated
08:29AM 37.4012 115.5902 141° Southeast  Level Estimated
08:30AM 37.3298 115.6631 141° Southeast  Level Estimated
08:31AM 37.2583 115.7360 141° Southeast  Level Estimated
08:32AM 37.1867 115.8087 141° Southeast  Level Estimated
08:33AM 37.1151 115.8812 141° Southeast  Level Estimated
08:34AM 37.0435 115.9536 141° Southeast  Level Estimated
08:35AM 36.9718 116.0259 141° Southeast  Level Estimated
08:36AM 36.9001 116.0981 141° Southeast  Level Estimated
08:37AM 36.8283 116.1701 141° Southeast  Level Estimated
08:38AM 36.7565 116.2419 141° Southeast  Level Estimated
08:39AM 36.6846 116.3137 141° Southeast  Level Estimated
08:40AM 36.6127 116.3853 141° Southeast  Level Estimated
08:41AM 36.5408 116.4568 141° Southeast  Level Estimated
08:42AM 36.4688 116.5281 141° Southeast  Level Estimated
08:43AM 36.3968 116.5993 141° Southeast  Level Estimated
08:44AM 36.3247 116.6704 142° Southeast  Level Estimated
08:45AM 36.2526 116.7413 142° Southeast  Level Estimated
08:46AM 36.1805 116.8121 142° Southeast  Level Estimated
08:47AM 36.1082 116.8828 142° Southeast  Level Estimated
08:48AM 36.0360 116.9534 142° Southeast  Level Estimated
08:49AM 35.9637 117.0238 142° Southeast  Level Estimated
08:50AM 35.8914 117.0941 142° Southeast  Level Estimated
08:51AM 35.8191 117.1643 142° Southeast  Level Estimated
08:52AM 35.7467 117.2343 142° Southeast  Level Estimated
08:53AM 35.6742 117.3042 142° Southeast  Level Estimated
08:54AM 35.6017 117.3740 142° Southeast  Level Estimated
08:55AM 35.5292 117.4436 142° Southeast  Level Estimated
08:56AM 35.4566 117.5132 142° Southeast  Level Estimated
08:57AM 35.3840 117.5826 142° Southeast  Level Estimated
08:58AM 35.3114 117.6518 142° Southeast  Level Estimated
08:59AM 35.2387 117.7210 142° Southeast  Level Estimated
09:00AM 35.1660 117.7900 142° Southeast  Level Estimated
09:01AM 35.0933 117.8589 142° Southeast  Level Estimated
09:02AM 35.0205 117.9277 142° Southeast  Level Estimated
09:03AM 34.9476 117.9964 142° Southeast  Level Estimated
09:04AM 34.8747 118.0649 142° Southeast  Level Estimated
09:05AM 34.8018 118.1334 142° Southeast  Level Estimated
09:06AM 34.7289 118.2017 142° Southeast  Level Estimated
09:07AM 34.6559 118.2698 142° Southeast  Level Estimated
09:08AM 34.5829 118.3379 142° Southeast  Level Estimated
09:09AM 34.5098 118.4058 143° Southeast  Level Estimated
09:10AM 34.4367 118.4737 143° Southeast  Level Estimated
09:11AM 34.3635 118.5414 143° Southeast  Level Estimated
09:12AM 34.2904 118.6089 143° Southeast  Level Estimated
09:13AM 34.2172 118.6764 143° Southeast  Level Estimated
09:14AM 34.1439 118.7438 143° Southeast  Level Estimated
09:15AM 34.0706 118.8110 143° Southeast  Level Estimated
09:16AM 33.9973 118.8781 143° Southeast  Level Estimated
09:17AM 33.9239 118.9451 143° Southeast  Level Estimated
09:18AM 33.8505 119.0120 143° Southeast  Level Estimated
09:19AM 33.7771 119.0788 143° Southeast  Level Estimated
09:20AM 33.7036 119.1454 143° Southeast  Level Estimated
09:21AM 33.6301 119.2120 143° Southeast  Level Estimated
09:22AM 33.5566 119.2784 143° Southeast  Level Estimated
09:23AM 33.4830 119.3447 143° Southeast  Level Estimated
09:24AM 33.4094 119.4109 143° Southeast  Level Estimated
09:25AM 33.3358 119.4770 143° Southeast  Level Estimated
09:26AM 33.2621 119.5430 143° Southeast  Level Estimated
09:27AM 33.1884 119.6088 143° Southeast  Level Estimated
09:28AM 33.1146 119.6746 143° Southeast  Level Estimated
09:29AM 33.0408 119.7402 143° Southeast  Level Estimated
09:30AM 32.9670 119.8058 143° Southeast  Level Estimated
09:31AM 32.8932 119.8712 143° Southeast  Level Estimated
09:32AM 32.8193 119.9365 143° Southeast  Level Estimated
09:33AM 32.7453 120.0017 143° Southeast  Level Estimated
09:34AM 32.6714 120.0668 143° Southeast  Level Estimated
09:35AM 32.5974 120.1318 143° Southeast  Level Estimated
09:36AM 32.5234 120.1967 144° Southeast  Level Estimated
09:37AM 32.4493 120.2615 144° Southeast  Level Estimated
09:38AM 32.3752 120.3262 144° Southeast  Level Estimated
09:39AM 32.3011 120.3907 144° Southeast  Level Estimated
09:40AM 32.2270 120.4552 144° Southeast  Level Estimated
09:41AM 32.1528 120.5196 144° Southeast  Level Estimated
09:42AM 32.0785 120.5838 144° Southeast  Level Estimated
09:43AM 32.0043 120.6480 144° Southeast  Level Estimated
09:44AM 31.9300 120.7120 144° Southeast  Level Estimated
09:45AM 31.8557 120.7759 144° Southeast  Level Estimated
09:46AM 31.7813 120.8398 144° Southeast  Level Estimated
09:47AM 31.7070 120.9035 144° Southeast  Level Estimated
09:48AM 31.6325 120.9671 144° Southeast  Level Estimated
09:49AM 31.5581 121.0307 144° Southeast  Level Estimated
09:50AM 31.4836 121.0941 144° Southeast  Level Estimated
09:51AM 31.4091 121.1574 144° Southeast  Level Estimated
09:52AM 31.3346 121.2207 144° Southeast  Level Estimated
09:53AM 31.2600 121.2838 144° Southeast  Level Estimated
09:54AM 31.1979 121.3363 144° Southeast  Level Estimated
09:55AM 31.1979 121.3363 North  Level Estimated
09:56AM 31.1979 121.3363 North  Level Estimated
09:57AM 31.1979 121.3363 North  Level Estimated
09:58AM 31.1979 121.3363 North  Level Estimated